11

www.moto.it

MX 2017. A Herlings e Covington le qualifiche del GP degli USA

11
...

MX 2017. A Herlings e Covington le qualifiche del GP degli USA

Nonostante Jeffrey Herlings lo rincorra col coltello tra i denti, Tony Cairoli è tranquillo forte dei suoi 101 di vantaggio e nella prima giornata del terzultimo GP della stagione si accontenta del posto d’onore dietro al suo agguerrito rivale. Si preannuncia un altro testa a testa scoppiettante tra il tandem KTM in lizza per il titolo, che in Florida ha iniziato la sfida sul veloce tracciato dal terreno composto da una leggera coltre di sabbia e da un fondo più consistente che è stato maciullato da un altro dei soliti temporali che da inizio settimana si continuano ad abbattere nell’area di Jacksonville.


La qualifica si è aperta con l’avvio al comando del siciliano, che dopo quattro giri ha preferito non accelerare ulteriormente il passo per contenere l’incalzare di Herlings che una volta passato al comando ha impresso un ritmo tale alla gara da tagliare il traguardo una ventina di secondi prima del leader azzurro. 3° a ben 45 secondi dal battistrada si è piazzato lo spettacolare Roman Febvre autore di fantastici scrub il quale ha preceduto il compagno di scuderia Jeremy Van Horebeek e Max Nagl.

Solo 11° Tim Gajser, alle cui spalle è terminato un Eli Tomac inspiegabile autore di una gara completamente incolore che lo ha visto rimanere costantemente a metà gruppo; ritirato invece a sette giri dalla fine Justin Barcia, mentre Cooper Webb non è partito in quanti fratturatosi un polso in prova.
 


Una caduta nelle libere della mattinata ha tenuto fuori anche Adam Cianciarulo nella MX2, in quanto il pilota Kawasaki Pro Circuit ha perso il controllo dell’avantreno in pieno rettilineo e nella caduta si è fatto male ad un ginocchio per cui ha preferito gettare la spugna. La gara ha registrato la prova solitaria di Thomas Covington, che ha preceduto la stella nascente statunitense Justin Cooper rimastogli sempre alle spalle anche se a debita distanza, e Pauls Jonass rimontato dalla 5ª piazza scavalcando prima Jorge Prado e all’ultimo giro Thomas Olsen.

11° Jeremy Seewer, partito attardato, e 14° Michele Cervellin che ha concluso cinque posizioni più avanti di Morgan Lesiardo.

CLASSIFICHE

MXGP - Qualifying Race - Classification

Pos Nr Rider Nat. Fed. Bike Time laps Diff. First Diff. Prev. Bestlaptime in lap Speed
1 84 Herlings, Jeffrey NED KNMV KTM 25:03.186 11 0:00.000 0:00.000 2:03.876 1 48.6
2 222 Cairoli, Antonio ITA FMI KTM 25:22.852 11 0:19.666 0:19.666 2:03.935 1 48.6
3 461 Febvre, Romain FRA FFM Yamaha 25:48.779 11 0:45.593 0:25.927 2:04.375 2 48.4
4 89 Van Horebeek, Jeremy BEL FMB Yamaha 25:52.228 11 0:49.042 0:03.449 2:07.520 2 47.2
5 12 Nagl, Maximilian GER DMSB Husqvarna 25:55.425 11 0:52.239 0:03.197 2:07.633 3 47.2
6 259 Coldenhoff, Glenn NED KNMV KTM 25:57.895 11 0:54.709 0:02.470 2:07.573 3 47.2
7 27 Jasikonis, Arminas LTU LMSF Suzuki 26:03.915 11 1:00.729 0:06.020 2:07.598 2 47.2
8 21 Paulin, Gautier FRA MCM Husqvarna 26:07.175 11 1:03.989 0:03.260 2:06.830 2 47.5
9 25 Desalle, Clement BEL FMB Kawasaki 26:08.518 11 1:05.332 0:01.343 2:08.896 1 46.7
10 24 Simpson, Shaun GBR ACU Yamaha 26:10.632 11 1:07.446 0:02.114 2:08.813 4 46.8
11 243 Gajser, Tim SLO AMZS Honda 26:12.132 11 1:08.946 0:01.500 2:08.818 2 46.8
12 3 Tomac, Eli USA AMA Kawasaki 26:13.350 11 1:10.164 0:01.218 2:08.634 2 46.8
13 22 Strijbos, Kevin BEL FMB Suzuki 26:15.515 11 1:12.329 0:02.165 2:09.262 2 46.6
14 911 Tixier, Jordi FRA FFM Kawasaki 26:24.230 11 1:21.044 0:08.715 2:09.300 6 46.6
15 210 Noren, Fredrik SWE AMA Honda 26:41.807 11 1:38.621 0:17.577 2:08.976 6 46.7
16 999 Goncalves, Rui POR FMP Husqvarna 26:51.816 11 1:48.630 0:10.009 2:11.660 2 45.7
17 332 Bloss, Benny USA AMA KTM 26:58.743 11 1:55.557 0:06.927 2:11.854 3 45.7
18 777 Bobryshev, Evgeny RUS MFR Honda 27:13.186 11 2:10.000 0:14.443 2:07.817 3 47.1
19 77 Lupino, Alessandro ITA FMI Honda 27:21.235 11 2:18.049 0:08.049 2:11.508 3 45.8
20 11 Chisholm, Kyle USA AMA Honda 25:21.597 10 1 lap 1 lap 2:12.115 3 45.6

MX2 - Qualifying Race - Classification

Pos Nr Rider Nat. Fed. Bike Time laps Diff. First Diff. Prev. Bestlaptime in lap Speed
1 64 Covington, Thomas USA MUL Husqvarna 25:25.861 11 0:00.000 0:00.000 2:04.779 1 48.3
2 191 Cooper, Justin USA AMA Yamaha 25:32.094 11 0:06.233 0:06.233 2:05.977 1 47.8
3 41 Jonass, Pauls LAT LAMSF KTM 25:35.965 11 0:10.104 0:03.871 2:06.783 1 47.5
4 19 Olsen, Thomas Kjer DEN DMU Husqvarna 25:39.734 11 0:13.873 0:03.769 2:05.596 1 48
5 61 Prado Garcia, Jorge ESP RFME KTM 25:52.528 11 0:26.667 0:12.794 2:05.534 2 48
6 245 Harrison, Mitchell USA AMA Yamaha 25:57.674 11 0:31.813 0:05.146 2:08.178 5 47
7 486 Sexton, Chase USA AMA Honda 26:05.903 11 0:40.042 0:08.229 2:08.277 4 47
8 96 Lawrence, Hunter AUS MA Suzuki 26:07.252 11 0:41.391 0:01.349 2:07.969 5 47.1
9 189 Bogers, Brian NED KNMV KTM 26:13.805 11 0:47.944 0:06.553 2:07.711 3 47.2
10 46 Pootjes, Davy NED KNMV KTM 26:16.044 11 0:50.183 0:02.239 2:09.750 4 46.4
11 91 Seewer, Jeremy SUI FMS Suzuki 26:17.056 11 0:51.195 0:01.012 2:09.250 3 46.6
12 172 Van doninck, Brent BEL FMB Yamaha 26:21.230 11 0:55.369 0:04.174 2:08.805 1 46.8
13 33 Lieber, Julien BEL FMB KTM 26:34.509 11 1:08.648 0:13.279 2:08.916 5 46.7
14 747 Cervellin, Michele ITA FMI Honda 26:46.633 11 1:20.772 0:12.124 2:10.768 2 46.1
15 297 Gole, Anton SWE SVEMO TM 26:51.274 11 1:25.413 0:04.641 2:11.131 4 45.9
16 57 Sanayei, Darian USA AMA Kawasaki 27:03.491 11 1:37.630 0:12.217 2:09.915 1 46.4
17 145 Mellross, Hayden AUS MA Yamaha 27:06.025 11 1:40.164 0:02.534 2:11.295 4 45.9
18 118 Rubini, Stephen FRA FFM Kawasaki 27:08.048 11 1:42.187 0:02.023 2:11.815 4 45.7
19 44 Lesiardo, Morgan ITA FMI Kawasaki 27:12.022 11 1:46.161 0:03.974 2:12.422 2 45.5
20 140 Root, Austin USA AMA Husqvarna 27:16.889 11 1:51.028 0:04.867 2:13.301 1 45.2